Jacksonport, Wisconsin
Current Conditions -  °F | °C
As of 3:15 AM on Sunday 21 Dec 2014 (Local Time) from KSUE Reporting Station
Overcast Overcast  
Wind Chill: 22°   Ceiling: 2900
Heat Index: 28°   Visibility: 5mi
Dew Point: 25°   Wind: 6mph
Humidity: 86%   Direction: 170°S
Pressure: 30.21"   Gusts: NA
Location:  44.7888°N, 87.4464°W
Report Text: KSUE 210915Z AUTO 17005KT 5SM OVC029 M02/M04 A3021 RMK AO1
Loading
Personal Weather Stations






























Interactive Weather Map New forecast layout! Learn more

10-Day Weather Forecast

Advertisements
Track Severe Weather on mobile